Brown Deer, Wisconsin
Current Conditions -  °F | °C
As of 8:45 AM on Tuesday 21 Oct 2014 (Local Time) from KMWC Reporting Station
Overcast Overcast  
Wind Chill: 41°   Ceiling: 3400
Heat Index: 45°   Visibility: 10mi
Dew Point: 37°   Wind: 7mph
Humidity: 76%   Direction: 360°N
Pressure: 30.17"   Gusts: NA
Location:  43.18°N, 87.97°W
Report Text: KMWC 211345Z AUTO 36006KT 10SM OVC034 07/03 A3017
Loading
Personal Weather Stations






























Interactive Weather Map
Tropical Storm Tracking
New forecast layout! Learn more

10-Day Weather Forecast

Advertisements
Track Severe Weather on mobile